Time;durP1;ratioP1;P1;durP2;ratioP2;P2;SDS_P1;SDS_P2;PMS_P1;PMS_P2;Temp;Humidity;BMP_temperature;BMP_pressure;BME280_temperature;BME280_humidity;BME280_pressure;Samples;Min_cycle;Max_cycle;Signal;HPM_P1;HPM_P2
2023/07/31 00:01:21;;;;;;;13.00;11.88;;;28.20;99.90;;;;;;5020703;28;20038;-68
2023/07/31 00:03:47;;;;;;;13.50;12.30;;;28.10;99.90;;;;;;5032241;28;20136;-68
2023/07/31 00:06:13;;;;;;;14.50;12.77;;;;;;;;;;5032111;28;20063;-68
2023/07/31 00:08:39;;;;;;;15.40;11.57;;;;;;;;;;5025829;28;20022;-68
2023/07/31 00:11:05;;;;;;;13.45;12.23;;;;;;;;;;5033113;28;20107;-68
2023/07/31 00:13:31;;;;;;;13.82;12.45;;;;;;;;;;5029670;28;20057;-68
2023/07/31 00:15:57;;;;;;;16.85;15.38;;;;;;;;;;5029357;28;20451;-69
2023/07/31 00:18:23;;;;;;;18.70;16.85;;;;;;;;;;5031073;28;20422;-68
2023/07/31 00:20:49;;;;;;;18.65;16.95;;;;;;;;;;5033991;28;20025;-68
2023/07/31 00:23:17;;;;;;;19.02;17.35;;;;;;;;;;5034882;28;20071;-68
2023/07/31 00:25:43;;;;;;;18.98;17.17;;;;;;;;;;5036353;28;20044;-68
2023/07/31 00:28:09;;;;;;;17.35;15.75;;;;;;;;;;5033000;28;20458;-68
2023/07/31 00:30:35;;;;;;;17.30;15.65;;;;;;;;;;5035971;28;20052;-68
2023/07/31 00:33:01;;;;;;;17.60;16.08;;;;;;;;;;5029403;28;20125;-68
2023/07/31 00:35:27;;;;;;;18.90;17.20;;;;;;;;;;5036258;28;20040;-68
2023/07/31 00:37:53;;;;;;;18.25;16.48;;;;;;;;;;5033905;28;20034;-68
2023/07/31 00:40:25;;;;;;;18.73;16.73;;;;;;;;;;5031591;28;20105;-68
2023/07/31 00:42:51;;;;;;;16.50;15.00;;;;;;;;;;5034864;28;20048;-68
2023/07/31 00:45:17;;;;;;;16.52;14.90;;;;;;;;;;5027957;28;20034;-68
2023/07/31 00:47:44;;;;;;;15.18;13.70;;;;;;;;;;5025543;28;20075;-68
2023/07/31 00:50:10;;;;;;;15.57;14.35;;;;;;;;;;5034087;28;20022;-68
2023/07/31 00:52:37;;;;;;;16.90;15.35;;;;;;;;;;5034117;28;20399;-68
2023/07/31 00:55:03;;;;;;;16.02;14.13;;;;;;;;;;5035693;28;20159;-68
2023/07/31 00:57:30;;;;;;;16.10;14.70;;;;;;;;;;5034773;28;20040;-68
2023/07/31 00:59:56;;;;;;;17.13;15.63;;;;;;;;;;5035446;28;20029;-68
2023/07/31 01:02:22;;;;;;;16.27;14.68;;;;;;;;;;5031757;28;20132;-69
2023/07/31 01:04:48;;;;;;;15.60;14.30;;;;;;;;;;5034908;28;20037;-68
2023/07/31 01:07:28;;;;;;;15.48;14.07;;;;;;;;;;5031673;28;20053;-68
2023/07/31 01:09:59;;;;;;;14.55;13.18;;;;;;;;;;5015219;28;20357;-68
2023/07/31 01:12:27;;;;;;;13.73;12.48;;;;;;;;;;5023985;28;20086;-68
2023/07/31 01:15:02;;;;;;;13.52;12.43;;;;;;;;;;5025624;28;20115;-68
2023/07/31 01:17:28;;;;;;;14.30;13.00;;;;;;;;;;5026738;28;20022;-68
2023/07/31 01:20:00;;;;;;;14.18;12.80;;;;;;;;;;5025750;28;20037;-68
2023/07/31 01:22:40;;;;;;;12.90;11.73;;;;;;;;;;5030719;28;20111;-68
2023/07/31 01:25:12;;;;;;;12.95;11.70;;;;;;;;;;5023052;28;20025;-69
2023/07/31 01:27:43;;;;;;;12.55;11.25;;;;;;;;;;5030215;28;20029;-69
2023/07/31 01:30:14;;;;;;;13.10;11.88;;;;;;;;;;5033940;28;20083;-68
2023/07/31 01:32:41;;;;;;;11.98;10.77;;;;;;;;;;5030352;28;20418;-69
2023/07/31 01:35:08;;;;;;;11.80;10.60;;;;;;;;;;5034137;28;20051;-69
2023/07/31 01:37:34;;;;;;;11.95;10.85;;;;;;;;;;5021145;28;20411;-69
2023/07/31 01:40:00;;;;;;;11.02;10.05;;;;;;;;;;5033343;28;20032;-69
2023/07/31 01:42:26;;;;;;;10.98;9.98;;;;;;;;;;5032387;28;20057;-69
2023/07/31 01:44:52;;;;;;;10.45;9.55;;;;;;;;;;5034631;28;20085;-69
2023/07/31 01:47:20;;;;;;;10.27;9.48;;;;;;;;;;5032959;28;20025;-68
2023/07/31 01:49:46;;;;;;;9.80;9.00;;;;;;;;;;5024391;28;20455;-69
2023/07/31 01:52:12;;;;;;;10.93;9.10;;;;;;;;;;5034540;28;20117;-69
2023/07/31 01:54:38;;;;;;;10.70;9.50;;;;;;;;;;5034543;28;20017;-69
2023/07/31 01:57:04;;;;;;;9.70;8.85;;;;;;;;;;5029906;28;20033;-69
2023/07/31 01:59:30;;;;;;;9.40;8.50;;;;;;;;;;5033876;28;20029;-67
2023/07/31 02:01:58;;;;;;;9.90;9.00;;;;;;;;;;5030748;28;20403;-69
2023/07/31 02:04:24;;;;;;;9.30;8.32;;;;;;;;;;5027581;28;20049;-69
2023/07/31 02:06:50;;;;;;;7.75;6.93;;;;;;;;;;5034864;28;20391;-68
2023/07/31 02:09:17;;;;;;;8.35;7.65;;;;;;;;;;5034293;28;20029;-68
2023/07/31 02:11:43;;;;;;;8.35;7.68;;;;;;;;;;5028436;28;20034;-68
2023/07/31 02:14:09;;;;;;;9.73;7.40;;;;;;;;;;5023652;28;20025;-68
2023/07/31 02:16:35;;;;;;;7.85;7.15;;;;;;;;;;5029493;28;20105;-68
2023/07/31 02:19:01;;;;;;;8.05;7.22;;;;;;;;;;5028782;28;20044;-69
2023/07/31 02:21:27;;;;;;;6.90;6.40;;;28.00;99.90;;;;;;5031142;28;20034;-68
2023/07/31 02:23:53;;;;;;;7.88;7.13;;;;;;;;;;5032875;28;20037;-69
2023/07/31 02:26:19;;;;;;;7.75;5.95;;;26.90;1.00;;;;;;5031430;28;20064;-69
2023/07/31 02:28:44;;;;;;;7.82;6.97;;;26.90;1.00;;;;;;5033468;28;20034;-69
2023/07/31 02:31:10;;;;;;;6.97;6.47;;;26.70;1.00;;;;;;5019523;28;20029;-69
2023/07/31 02:33:36;;;;;;;10.68;6.60;;;26.70;1.00;;;;;;5031556;28;20036;-69
2023/07/31 02:36:01;;;;;;;6.43;5.90;;;26.80;1.00;;;;;;5029872;28;20080;-68
2023/07/31 02:38:27;;;;;;;7.40;6.45;;;26.70;1.00;;;;;;5027858;28;20022;-68
2023/07/31 02:40:52;;;;;;;5.78;5.28;;;26.70;1.00;;;;;;5032283;28;20171;-69
2023/07/31 02:43:18;;;;;;;5.80;5.40;;;26.80;1.00;;;;;;5031770;28;20025;-68
2023/07/31 02:45:45;;;;;;;5.93;5.43;;;26.80;1.00;;;;;;5029233;28;20064;-69
2023/07/31 02:48:11;;;;;;;6.88;5.50;;;26.70;1.00;;;;;;5028552;28;20475;-68
2023/07/31 02:50:36;;;;;;;6.05;5.20;;;26.70;1.00;;;;;;5033316;28;20105;-68
2023/07/31 02:53:02;;;;;;;5.10;4.60;;;26.90;1.00;;;;;;5033028;28;20151;-68
2023/07/31 02:55:28;;;;;;;6.07;5.43;;;26.90;1.00;;;;;;5020913;28;20095;-69
2023/07/31 02:57:54;;;;;;;6.03;5.53;;;26.80;1.00;;;;;;5034240;28;20126;-68
2023/07/31 03:00:19;;;;;;;4.97;4.22;;;26.90;1.00;;;;;;5022103;28;20025;-68
2023/07/31 03:02:45;;;;;;;6.05;4.97;;;26.80;1.00;;;;;;5029620;28;20060;-68
2023/07/31 03:05:11;;;;;;;5.05;4.65;;;26.90;1.00;;;;;;5032638;28;20032;-68
2023/07/31 03:07:36;;;;;;;5.65;5.13;;;26.80;1.00;;;;;;5033084;28;20025;-69
2023/07/31 03:10:02;;;;;;;4.50;4.10;;;26.60;1.00;;;;;;5033505;28;20037;-69
2023/07/31 03:12:27;;;;;;;5.72;5.22;;;26.60;1.00;;;;;;5030769;28;20459;-68
2023/07/31 03:14:53;;;;;;;4.75;4.35;;;26.50;1.00;;;;;;5030076;28;20035;-68
2023/07/31 03:17:19;;;;;;;6.43;5.05;;;26.50;1.00;;;;;;5020233;28;20060;-68
2023/07/31 03:19:45;;;;;;;5.00;4.50;;;26.50;1.00;;;;;;5028174;28;20381;-68
2023/07/31 03:22:10;;;;;;;4.63;4.22;;;26.40;1.00;;;;;;5032393;28;20030;-68
2023/07/31 03:24:36;;;;;;;5.50;4.88;;;26.50;1.00;;;;;;5025504;28;20017;-68
2023/07/31 03:27:01;;;;;;;6.20;4.85;;;26.50;1.00;;;;;;5033156;28;20029;-68
2023/07/31 03:29:27;;;;;;;6.82;5.05;;;26.50;1.00;;;;;;5032084;28;20027;-68
2023/07/31 03:31:53;;;;;;;5.53;4.88;;;26.50;1.00;;;;;;5016561;28;20128;-69
2023/07/31 03:34:18;;;;;;;5.95;5.18;;;26.50;1.00;;;;;;5028952;28;20116;-68
2023/07/31 03:36:44;;;;;;;5.40;4.90;;;26.60;1.00;;;;;;5032843;28;20546;-68
2023/07/31 03:39:10;;;;;;;5.82;5.30;;;26.50;1.00;;;;;;5029993;28;20082;-68
2023/07/31 03:41:35;;;;;;;5.47;5.07;;;26.50;1.00;;;;;;5032031;28;20049;-68
2023/07/31 03:44:01;;;;;;;5.88;5.22;;;26.50;1.00;;;;;;5028670;28;20155;-68
2023/07/31 03:46:29;;;;;;;5.97;5.25;;;26.60;1.00;;;;;;5032813;28;20112;-69
2023/07/31 03:48:54;;;;;;;5.57;4.80;;;26.70;1.00;;;;;;5036425;28;20033;-68
2023/07/31 03:51:20;;;;;;;5.38;4.88;;;26.70;1.00;;;;;;5032098;28;20018;-68
2023/07/31 03:53:46;;;;;;;5.90;4.85;;;26.60;1.00;;;;;;5036698;28;20034;-69
2023/07/31 03:56:11;;;;;;;5.68;5.07;;;26.60;1.00;;;;;;5036001;28;20026;-68
2023/07/31 03:58:37;;;;;;;4.57;4.18;;;26.50;1.00;;;;;;5036212;28;20108;-68
2023/07/31 04:01:03;;;;;;;5.18;4.53;;;26.40;1.00;;;;;;5032950;28;20064;-69
2023/07/31 04:03:30;;;;;;;7.10;5.82;;;26.50;1.00;;;;;;5034957;28;20072;-68
2023/07/31 04:05:56;;;;;;;7.05;6.15;;;26.50;1.00;;;;;;5032274;28;20034;-69
2023/07/31 04:08:22;;;;;;;6.90;6.18;;;26.50;1.00;;;;;;5024772;28;20475;-68
2023/07/31 04:10:48;;;;;;;6.05;5.55;;;26.30;1.00;;;;;;5036226;28;20100;-68
2023/07/31 04:13:14;;;;;;;6.13;5.63;;;26.40;1.00;;;;;;5033104;28;20547;-68
2023/07/31 04:15:40;;;;;;;6.03;5.53;;;26.40;1.00;;;;;;5033977;28;20360;-68
2023/07/31 04:18:06;;;;;;;7.45;6.72;;;26.40;1.00;;;;;;5034706;28;20099;-68
2023/07/31 04:20:35;;;;;;;6.82;6.22;;;26.40;1.00;;;;;;5035951;28;20033;-68
2023/07/31 04:23:00;;;;;;;6.15;5.55;;;26.30;1.00;;;;;;5030333;28;20048;-68
2023/07/31 04:25:26;;;;;;;6.63;6.00;;;26.30;1.00;;;;;;5024803;28;20026;-68
2023/07/31 04:27:52;;;;;;;7.57;6.72;;;26.30;99.90;;;;;;5024877;28;20471;-68
2023/07/31 04:30:17;;;;;;;8.20;5.97;;;26.30;99.90;;;;;;5035550;28;20471;-68
2023/07/31 04:32:43;;;;;;;9.13;6.30;;;26.30;99.90;;;;;;5033417;28;20065;-68
2023/07/31 04:35:33;;;;;;;7.38;6.63;;;26.30;99.90;;;;;;5036119;28;20502;-68
2023/07/31 04:37:59;;;;;;;6.88;6.25;;;26.20;99.90;;;;;;5026207;28;20032;-68
2023/07/31 04:40:25;;;;;;;6.78;6.18;;;26.20;99.90;;;;;;5032917;28;20029;-68
2023/07/31 04:42:51;;;;;;;8.00;6.78;;;26.30;99.90;;;;;;5032545;28;20045;-68
2023/07/31 04:45:16;;;;;;;7.10;6.38;;;26.20;99.90;;;;;;5036024;28;20447;-68
2023/07/31 04:47:42;;;;;;;6.43;5.82;;;26.10;99.90;;;;;;5033538;28;20026;-68
2023/07/31 04:50:08;;;;;;;6.72;6.03;;;26.30;99.90;;;;;;5035695;28;20112;-68
2023/07/31 04:52:34;;;;;;;6.50;6.00;;;26.20;99.90;;;;;;5035116;28;20610;-68
2023/07/31 04:54:59;;;;;;;7.18;6.07;;;26.30;99.90;;;;;;5035293;28;20029;-68
2023/07/31 04:57:25;;;;;;;6.07;5.57;;;26.20;99.90;;;;;;5025780;28;20427;-68
2023/07/31 04:59:51;;;;;;;6.45;5.70;;;26.10;99.90;;;;;;5032493;28;20013;-68
2023/07/31 05:02:16;;;;;;;7.80;4.80;;;26.10;99.90;;;;;;5031748;28;20064;-68
2023/07/31 05:04:42;;;;;;;12.35;5.30;;;26.20;99.90;;;;;;5033372;28;20038;-68
2023/07/31 05:07:08;;;;;;;4.82;4.43;;;26.30;99.90;;;;;;5022217;28;20483;-68
2023/07/31 05:09:33;;;;;;;6.10;5.15;;;26.50;99.90;;;;;;5028117;28;20029;-68
2023/07/31 05:11:59;;;;;;;7.15;5.53;;;26.60;99.90;;;;;;5033171;28;20025;-68
2023/07/31 05:14:26;;;;;;;5.38;4.88;;;26.60;99.90;;;;;;5028960;28;20475;-69
2023/07/31 05:16:52;;;;;;;5.65;4.47;;;26.60;99.90;;;;;;5031341;28;20475;-69
2023/07/31 05:19:18;;;;;;;5.22;3.95;;;26.90;99.90;;;;;;5027572;28;20032;-68
2023/07/31 05:21:43;;;;;;;5.72;5.22;;;26.90;99.90;;;;;;5033150;28;20045;-69
2023/07/31 05:24:10;;;;;;;4.70;4.38;;;26.80;99.90;;;;;;5020256;28;20137;-69
2023/07/31 05:26:37;;;;;;;5.80;4.50;;;27.00;99.90;;;;;;5028378;28;20040;-69
2023/07/31 05:29:03;;;;;;;6.97;4.50;;;27.10;99.90;;;;;;5031714;28;20026;-69
2023/07/31 05:31:29;;;;;;;4.70;4.30;;;27.20;99.90;;;;;;5033108;28;20033;-68
2023/07/31 05:33:55;;;;;;;4.85;4.32;;;27.20;99.90;;;;;;5035868;28;20088;-69
2023/07/31 05:36:20;;;;;;;4.18;3.78;;;27.30;99.90;;;;;;5028887;28;20082;-69
2023/07/31 05:38:46;;;;;;;5.40;4.90;;;27.40;99.90;;;;;;5030258;28;20064;-69
2023/07/31 05:41:12;;;;;;;7.20;4.60;;;27.40;99.90;;;;;;5025643;28;20379;-68
2023/07/31 05:43:38;;;;;;;5.22;4.65;;;27.50;99.90;;;;;;5031656;28;20025;-69
2023/07/31 05:46:04;;;;;;;4.63;4.32;;;27.30;99.90;;;;;;5023005;28;20029;-69
2023/07/31 05:48:39;;;;;;;4.45;4.07;;;27.00;99.90;;;;;;5029178;28;20097;-69
2023/07/31 05:51:05;;;;;;;4.80;4.30;;;27.30;99.90;;;;;;5032598;28;20037;-69
2023/07/31 05:53:30;;;;;;;6.00;4.50;;;27.20;99.90;;;;;;5030266;28;20037;-69
2023/07/31 05:55:56;;;;;;;4.63;4.07;;;27.20;99.90;;;;;;5030006;28;20056;-69
2023/07/31 05:58:22;;;;;;;7.18;4.20;;;27.30;99.90;;;;;;5029286;28;20029;-69
2023/07/31 06:00:47;;;;;;;4.57;4.25;;;27.30;99.90;;;;;;5034152;28;20036;-70
2023/07/31 06:03:13;;;;;;;4.97;4.53;;;27.40;99.90;;;;;;5033954;28;20041;-69
2023/07/31 06:05:38;;;;;;;4.85;4.18;;;27.40;99.90;;;;;;5033990;28;20025;-69
2023/07/31 06:08:04;;;;;;;4.80;4.32;;;27.40;99.90;;;;;;5034335;28;20107;-70
2023/07/31 06:10:30;;;;;;;4.55;4.03;;;27.40;99.90;;;;;;5033790;28;20025;-68
2023/07/31 06:12:57;;;;;;;5.07;3.72;;;27.50;99.90;;;;;;5030596;28;20530;-69
2023/07/31 06:15:22;;;;;;;4.13;3.50;;;27.60;99.90;;;;;;5033933;28;20108;-69
2023/07/31 06:17:48;;;;;;;4.53;3.90;;;27.50;99.90;;;;;;5033995;28;20041;-69
2023/07/31 06:20:14;;;;;;;3.65;3.28;;;27.50;99.90;;;;;;5033944;28;20033;-69
2023/07/31 06:22:39;;;;;;;4.88;3.80;;;27.70;99.90;;;;;;5033895;28;20026;-69
2023/07/31 06:25:05;;;;;;;3.90;3.60;;;27.50;99.90;;;;;;5032137;28;20041;-69
2023/07/31 06:27:31;;;;;;;5.18;3.28;;;27.60;99.90;;;;;;5032517;28;20025;-69
2023/07/31 06:29:57;;;;;;;4.70;3.70;;;27.70;99.90;;;;;;5033124;28;20031;-69
2023/07/31 06:32:23;;;;;;;4.03;3.47;;;27.60;99.90;;;;;;5022531;28;20493;-69
2023/07/31 06:35:01;;;;;;;4.10;3.80;;;27.70;99.90;;;;;;5031656;28;20021;-68
2023/07/31 06:37:26;;;;;;;4.07;3.70;;;27.80;99.90;;;;;;5033085;28;20033;-68
2023/07/31 06:39:52;;;;;;;3.70;3.35;;;27.80;99.90;;;;;;5030440;28;20025;-68
2023/07/31 06:42:18;;;;;;;3.53;3.22;;;27.70;99.90;;;;;;5028220;28;20403;-68
2023/07/31 06:44:43;;;;;;;4.38;3.80;;;27.80;99.90;;;;;;5029308;28;20116;-69
2023/07/31 06:47:09;;;;;;;3.53;3.33;;;27.90;99.90;;;;;;5028901;28;20052;-69
2023/07/31 06:49:35;;;;;;;4.28;3.92;;;;;;;;;;5025915;28;20044;-69
2023/07/31 06:52:01;;;;;;;18.40;16.50;;;;;;;;;;5030791;28;20038;-70
2023/07/31 06:54:28;;;;;;;18.00;15.45;;;27.80;99.90;;;;;;5031999;28;20048;-64
2023/07/31 06:56:54;;;;;;;20.48;16.88;;;28.10;99.90;;;;;;5026521;28;20477;-65
2023/07/31 06:59:19;;;;;;;20.70;18.25;;;28.20;99.90;;;;;;5027889;28;20108;-60
2023/07/31 07:01:45;;;;;;;9.60;8.02;;;;;;;;;;5029525;28;20526;-61
2023/07/31 07:04:11;;;;;;;16.33;13.80;;;;;;;;;;5028246;28;20053;-59
2023/07/31 07:06:37;;;;;;;30.08;24.80;;;;;;;;;;5026543;28;20044;-61
2023/07/31 07:09:04;;;;;;;11.45;10.27;;;;;;;;;;5026279;28;20457;-60
2023/07/31 07:11:30;;;;;;;16.23;14.15;;;;;;;;;;5028107;28;20376;-62
2023/07/31 07:13:56;;;;;;;11.38;9.23;;;;;;;;;;5025612;28;20031;-60
2023/07/31 07:16:23;;;;;;;16.45;14.75;;;;;;;;;;5021779;28;20113;-62
2023/07/31 07:18:49;;;;;;;19.58;16.73;;;;;;;;;;5032801;28;20120;-60
2023/07/31 07:21:15;;;;;;;12.65;9.02;;;;;;;;;;5030854;28;20478;-73
2023/07/31 07:23:42;;;;;;;7.03;6.32;;;;;;;;;;5022775;28;20037;-69
2023/07/31 07:26:08;;;;;;;27.10;20.30;;;;;;;;;;5031679;28;20513;-62
2023/07/31 07:28:34;;;;;;;37.72;30.55;;;;;;;;;;5032299;28;20033;-64
2023/07/31 07:31:09;;;;;;;14.13;12.25;;;28.30;99.90;;;;;;5028859;28;20091;-65
2023/07/31 07:33:35;;;;;;;9.50;7.45;;;29.10;99.90;;;;;;5029123;28;20055;-63
2023/07/31 07:36:01;;;;;;;8.15;5.53;;;28.80;99.90;;;;;;5016080;28;20109;-69
2023/07/31 07:38:27;;;;;;;4.10;3.80;;;28.70;99.90;;;;;;5023606;28;20033;-67
2023/07/31 07:40:53;;;;;;;12.25;10.68;;;28.50;99.90;;;;;;5019879;28;20029;-67
2023/07/31 07:43:51;;;;;;;14.93;12.15;;;28.30;99.90;;;;;;5027032;28;20033;-71
2023/07/31 07:46:16;;;;;;;10.55;9.05;;;28.50;99.90;;;;;;5029768;28;20022;-68
2023/07/31 07:48:42;;;;;;;14.27;12.15;;;28.50;99.90;;;;;;5032877;28;20044;-65
2023/07/31 07:51:08;;;;;;;10.75;9.65;;;28.40;99.90;;;;;;5044823;28;20024;-66
2023/07/31 07:53:33;;;;;;;18.33;13.18;;;28.40;99.90;;;;;;5038104;28;20043;-65
2023/07/31 07:55:59;;;;;;;26.23;21.83;;;28.50;99.90;;;;;;5032804;28;20124;-63
2023/07/31 07:58:25;;;;;;;28.00;21.85;;;28.80;99.90;;;;;;5032544;28;20087;-64
2023/07/31 08:00:51;;;;;;;23.40;20.90;;;29.00;99.90;;;;;;5032431;28;20030;-64
2023/07/31 08:03:17;;;;;;;13.52;11.07;;;28.80;99.90;;;;;;5025781;28;20076;-59
2023/07/31 08:05:44;;;;;;;20.52;15.70;;;28.90;99.90;;;;;;5026835;28;20037;-59
2023/07/31 08:08:16;;;;;;;18.80;15.82;;;28.90;99.90;;;;;;5028305;28;20528;-59
2023/07/31 08:10:42;;;;;;;27.05;24.10;;;29.10;99.90;;;;;;5030290;28;20100;-58
2023/07/31 08:13:08;;;;;;;8.00;7.18;;;29.00;99.90;;;;;;5023900;28;20048;-58
2023/07/31 08:15:33;;;;;;;43.20;38.50;;;28.90;99.90;;;;;;5030903;28;20426;-58
2023/07/31 08:17:59;;;;;;;22.73;19.48;;;28.90;99.90;;;;;;5028201;28;20017;-53
2023/07/31 08:20:26;;;;;;;38.20;34.00;;;29.00;99.90;;;;;;5027703;28;20030;-78
2023/07/31 08:22:52;;;;;;;32.05;28.83;;;29.10;99.90;;;;;;5026021;28;20057;-65
2023/07/31 08:25:19;;;;;;;15.82;14.23;;;28.90;99.90;;;;;;5029759;28;20422;-66
2023/07/31 08:27:45;;;;;;;50.50;45.60;;;29.00;99.90;;;;;;5029347;28;20033;-65
2023/07/31 08:30:12;;;;;;;29.10;25.98;;;29.00;99.90;;;;;;5032044;28;20084;-65
2023/07/31 08:32:38;;;;;;;19.80;17.75;;;29.00;99.90;;;;;;5033912;28;20025;-65
2023/07/31 08:35:04;;;;;;;34.70;30.92;;;29.10;99.90;;;;;;5036299;28;20033;-65
2023/07/31 08:37:29;;;;;;;17.70;13.48;;;29.10;99.90;;;;;;5035997;28;20034;-65
2023/07/31 08:39:55;;;;;;;20.00;18.02;;;29.20;99.90;;;;;;5028899;28;20025;-66
2023/07/31 08:42:21;;;;;;;16.33;13.88;;;29.20;99.90;;;;;;5036118;28;20120;-66
2023/07/31 08:44:48;;;;;;;16.00;14.30;;;29.30;99.90;;;;;;5035787;28;20103;-65
2023/07/31 08:47:15;;;;;;;24.33;21.75;;;29.30;99.90;;;;;;5034450;28;20522;-66
2023/07/31 08:49:43;;;;;;;14.68;13.23;;;29.10;99.90;;;;;;5036027;28;20009;-65
2023/07/31 08:52:09;;;;;;;25.65;22.20;;;29.10;99.90;;;;;;5035725;28;20493;-65
2023/07/31 08:54:36;;;;;;;26.30;23.55;;;;;;;;;;5035579;28;20036;-66
2023/07/31 08:57:02;;;;;;;32.17;28.60;;;;;;;;;;5034173;28;20029;-65
2023/07/31 08:59:31;;;;;;;8.25;5.65;;;;;;;;;;5035835;28;20018;-67
2023/07/31 09:02:00;;;;;;;23.02;19.77;;;;;;;;;;5035713;28;20034;-66
2023/07/31 09:04:27;;;;;;;17.58;15.80;;;;;;;;;;5035220;28;20046;-66
2023/07/31 09:06:57;;;;;;;14.48;12.68;;;;;;;;;;5035483;28;20487;-66
2023/07/31 09:09:23;;;;;;;8.57;6.95;;;;;;;;;;5035798;28;20422;-66
2023/07/31 09:11:50;;;;;;;9.90;7.22;;;;;;;;;;5035376;28;20024;-67
2023/07/31 09:14:17;;;;;;;9.77;8.38;;;;;;;;;;5035265;28;20109;-67
2023/07/31 09:16:53;;;;;;;9.85;8.85;;;;;;;;;;5035496;28;20033;-67
2023/07/31 09:19:30;;;;;;;14.73;12.93;;;;;;;;;;5035247;28;20040;-67
2023/07/31 09:21:56;;;;;;;18.05;16.15;;;;;;;;;;5035311;28;20064;-67
2023/07/31 09:24:27;;;;;;;18.73;16.45;;;;;;;;;;5024589;28;20108;-66
2023/07/31 09:27:02;;;;;;;11.73;9.13;;;;;;;;;;5032512;28;20014;-67
2023/07/31 09:29:29;;;;;;;26.17;23.38;;;;;;;;;;5035117;28;20052;-66
2023/07/31 09:31:55;;;;;;;11.40;10.27;;;29.10;99.90;;;;;;5034908;28;20042;-66
2023/07/31 09:34:40;;;;;;;19.63;17.58;;;29.70;99.90;;;;;;5035063;28;20073;-66
2023/07/31 09:37:31;;;;;;;18.15;16.25;;;29.70;99.90;;;;;;5034886;28;20471;-67
2023/07/31 09:40:31;;;;;;;31.38;27.33;;;29.70;99.90;;;;;;5034892;28;20035;-66
2023/07/31 09:43:02;;;;;;;9.63;8.68;;;29.60;99.90;;;;;;5033588;28;20037;-66
2023/07/31 09:45:28;;;;;;;15.95;11.98;;;29.60;99.90;;;;;;5034040;28;20056;-66
2023/07/31 09:47:55;;;;;;;11.50;9.82;;;29.70;99.90;;;;;;5034666;28;20483;-67
2023/07/31 09:50:23;;;;;;;88.13;72.97;;;29.80;99.90;;;;;;5034567;28;20026;-66
2023/07/31 09:52:50;;;;;;;13.13;11.07;;;;;;;;;;5034771;28;20375;-66
2023/07/31 09:55:16;;;;;;;36.88;31.77;;;;;;;;;;5034781;28;20056;-66
2023/07/31 09:57:45;;;;;;;9.60;8.80;;;29.90;99.90;;;;;;5034421;28;20032;-66
2023/07/31 10:00:26;;;;;;;11.23;9.95;;;30.20;99.90;;;;;;5034737;28;20113;-66
2023/07/31 10:02:53;;;;;;;10.57;9.55;;;30.20;99.90;;;;;;5020707;28;20057;-66
2023/07/31 10:05:20;;;;;;;27.98;22.95;;;30.30;99.90;;;;;;5034330;28;20033;-66
2023/07/31 10:07:51;;;;;;;15.90;14.30;;;;;;;;;;5034584;28;20022;-66
2023/07/31 10:10:20;;;;;;;18.65;16.77;;;;;;;;;;5024260;28;20091;-60
2023/07/31 10:12:47;;;;;;;18.08;13.77;;;;;;;;;;5023509;28;20043;-60
2023/07/31 10:15:13;;;;;;;13.40;12.18;;;;;;;;;;5033351;28;20444;-60
2023/07/31 10:17:39;;;;;;;62.75;53.58;;;;;;;;;;5027573;28;20040;-65
2023/07/31 10:20:06;;;;;;;22.55;20.17;;;;;;;;;;5023690;28;20124;-72
2023/07/31 10:22:32;;;;;;;24.95;22.52;;;;;;;;;;5026231;28;20515;-68
2023/07/31 10:25:00;;;;;;;18.25;16.40;;;;;;;;;;5031454;28;20117;-69
2023/07/31 10:27:26;;;;;;;15.40;14.10;;;30.20;99.90;;;;;;5043741;28;20026;-70
2023/07/31 10:29:54;;;;;;;20.00;18.10;;;29.90;99.90;;;;;;5028349;28;20029;-61
2023/07/31 10:32:21;;;;;;;120.50;108.03;;;29.80;99.90;;;;;;5029671;28;20040;-62
2023/07/31 10:34:48;;;;;;;30.20;27.10;;;29.70;99.90;;;;;;5028329;28;20067;-62
2023/07/31 10:37:29;;;;;;;12.50;11.13;;;29.70;99.90;;;;;;5027675;28;20116;-62
2023/07/31 10:40:00;;;;;;;19.77;17.77;;;29.90;99.90;;;;;;5022816;28;20125;-62
2023/07/31 10:42:30;;;;;;;20.15;17.80;;;29.90;99.90;;;;;;5023991;28;20436;-69
2023/07/31 10:45:07;;;;;;;24.05;21.52;;;29.90;99.90;;;;;;5027467;28;20027;-63
2023/07/31 10:47:45;;;;;;;16.20;14.30;;;30.00;99.90;;;;;;5030797;28;20067;-66
2023/07/31 10:50:13;;;;;;;15.88;14.10;;;30.10;99.90;;;;;;5029903;28;20112;-67
2023/07/31 10:52:39;;;;;;;10.60;9.63;;;30.20;99.90;;;;;;5031200;28;20022;-70
2023/07/31 10:55:31;;;;;;;21.30;18.95;;;30.30;99.90;;;;;;5030412;28;20067;-67
2023/07/31 10:57:58;;;;;;;38.20;34.00;;;;;;;;;;5030523;28;20472;-76
2023/07/31 11:00:28;;;;;;;53.17;46.67;;;;;;;;;;5026051;28;20173;-73
2023/07/31 11:03:08;;;;;;;18.17;16.38;;;30.50;99.90;;;;;;5032999;28;20055;-73
2023/07/31 11:05:54;;;;;;;24.48;21.98;;;30.80;99.90;;;;;;5031871;28;20041;-73
2023/07/31 11:08:25;;;;;;;42.45;37.92;;;30.80;99.90;;;;;;5033080;28;20437;-74
2023/07/31 11:11:12;;;;;;;22.15;19.77;;;30.60;99.90;;;;;;5023148;28;20507;-74
2023/07/31 11:13:42;;;;;;;21.08;18.98;;;30.90;99.90;;;;;;5064383;28;20060;-74
2023/07/31 11:16:08;;;;;;;19.77;17.65;;;31.00;99.90;;;;;;5033029;28;20040;-73
2023/07/31 11:18:35;;;;;;;19.95;17.98;;;;;;;;;;5033072;28;20033;-73
2023/07/31 11:21:01;;;;;;;11.90;10.80;;;;;;;;;;5033018;28;20033;-73
2023/07/31 11:23:27;;;;;;;17.40;14.45;;;;;;;;;;5032768;28;20380;-72
2023/07/31 11:25:53;;;;;;;84.30;75.57;;;;;;;;;;5033269;28;20450;-71
2023/07/31 11:28:20;;;;;;;17.25;15.50;;;;;;;;;;5032844;28;20538;-71
2023/07/31 11:30:46;;;;;;;18.75;16.83;;;;;;;;;;5023356;28;20024;-71
2023/07/31 11:33:13;;;;;;;41.65;33.03;;;;;;;;;;5032414;28;20119;-72
2023/07/31 11:35:49;;;;;;;15.38;13.75;;;;;;;;;;5032604;28;20383;-71
2023/07/31 11:38:25;;;;;;;30.02;26.85;;;;;;;;;;5030177;28;20509;-71
2023/07/31 11:40:51;;;;;;;44.83;40.13;;;31.30;99.90;;;;;;5031704;28;20038;-71
2023/07/31 11:43:18;;;;;;;24.13;21.38;;;;;;;;;;5025787;28;20159;-63
2023/07/31 11:45:48;;;;;;;14.05;12.73;;;32.10;99.90;;;;;;5030982;28;20022;-63
2023/07/31 11:48:21;;;;;;;20.05;17.98;;;;;;;;;;5026542;28;20450;-65
2023/07/31 11:50:49;;;;;;;11.40;10.30;;;;;;;;;;5031071;28;20144;-65
2023/07/31 11:53:16;;;;;;;16.50;14.95;;;;;;;;;;5028649;28;20029;-59
2023/07/31 11:55:42;;;;;;;71.25;63.67;;;38.80;99.90;;;;;;5032127;28;20112;-59
2023/07/31 11:58:08;;;;;;;19.25;17.20;;;39.50;99.90;;;;;;5031235;28;20061;-73
2023/07/31 12:00:35;;;;;;;45.83;41.13;;;;;;;;;;5030795;28;20026;-74
2023/07/31 12:03:01;;;;;;;23.30;21.23;;;;;;;;;;5027389;28;20049;-73
2023/07/31 12:05:27;;;;;;;15.50;14.18;;;41.40;99.90;;;;;;5030439;28;20033;-74
2023/07/31 12:07:54;;;;;;;21.75;19.48;;;;;;;;;;5030602;28;20018;-73
2023/07/31 12:10:24;;;;;;;13.55;12.20;;;;;;;;;;5033590;28;20049;-73
2023/07/31 12:13:07;;;;;;;27.83;24.95;;;;;;;;;;5035141;28;20032;-65
2023/07/31 12:15:37;;;;;;;21.23;19.00;;;39.90;99.90;;;;;;5032408;28;20360;-63
2023/07/31 12:18:08;;;;;;;54.00;48.47;;;38.10;99.90;;;;;;5032921;28;20029;-66
2023/07/31 12:21:00;;;;;;;36.08;32.42;;;38.10;99.90;;;;;;5034430;28;20053;-60
2023/07/31 12:23:28;;;;;;;23.17;20.70;;;38.40;99.90;;;;;;5021864;28;20042;-60
2023/07/31 12:26:09;;;;;;;14.45;13.18;;;;;;;;;;5033713;28;20030;-59
2023/07/31 12:28:36;;;;;;;39.00;35.42;;;;;;;;;;5025493;28;20038;-61
2023/07/31 12:31:02;;;;;;;111.65;99.93;;;39.60;99.90;;;;;;5033081;28;20423;-61
2023/07/31 12:33:32;;;;;;;17.70;16.20;;;39.30;99.90;;;;;;5030384;28;20479;-61
2023/07/31 12:36:00;;;;;;;22.55;20.25;;;39.00;99.90;;;;;;5033204;28;20034;-61
2023/07/31 12:38:25;;;;;;;9.95;9.15;;;38.50;99.90;;;;;;5035599;28;20030;-61
2023/07/31 12:40:51;;;;;;;15.85;14.55;;;40.60;99.90;;;;;;5035470;28;20021;-61
2023/07/31 12:43:17;;;;;;;10.90;10.05;;;42.10;99.90;;;;;;5030011;28;20029;-60
2023/07/31 12:45:42;;;;;;;11.07;10.05;;;42.10;99.90;;;;;;5032562;28;20031;-60
2023/07/31 12:48:08;;;;;;;8.02;7.43;;;40.30;99.90;;;;;;5027372;28;20364;-60
2023/07/31 12:50:36;;;;;;;7.35;6.65;;;38.60;99.90;;;;;;5035077;28;20103;-60
2023/07/31 12:53:03;;;;;;;7.10;6.53;;;37.00;99.90;;;;;;5034075;28;20517;-71
2023/07/31 12:55:30;;;;;;;7.60;6.90;;;;;;;;;;5030850;28;20026;-68
2023/07/31 12:57:55;;;;;;;6.75;6.25;;;35.00;99.90;;;;;;5031088;28;20037;-64
2023/07/31 13:00:21;;;;;;;6.13;5.63;;;;;;;;;;5021585;28;20060;-68
2023/07/31 13:02:47;;;;;;;6.35;5.85;;;;;;;;;;5027905;28;20053;-64
2023/07/31 13:05:14;;;;;;;6.95;6.45;;;;;;;;;;5030894;28;20029;-63
2023/07/31 13:07:40;;;;;;;6.47;5.85;;;;;;;;;;5029732;28;20452;-63
2023/07/31 13:10:07;;;;;;;5.72;5.22;;;;;;;;;;5025312;28;20022;-67
2023/07/31 13:12:33;;;;;;;5.70;5.30;;;;;;;;;;5030776;28;20025;-63
2023/07/31 13:14:59;;;;;;;6.13;5.53;;;34.00;99.90;;;;;;5029379;28;20356;-70
2023/07/31 13:17:25;;;;;;;6.40;5.93;;;33.50;99.90;;;;;;5030998;28;20044;-69
2023/07/31 13:19:51;;;;;;;6.78;6.25;;;33.30;99.90;;;;;;5028909;28;20033;-67